sensor_id;sensor_type;location;lat;lon;timestamp;pressure;altitude;pressure_sealevel;temperature;humidity
15880;BME280;61999;51.514;14.614;2023-04-30T00:01:47;100290.44;;;5.42;66.34
15880;BME280;61999;51.514;14.614;2023-04-30T00:04:15;100287.53;;;5.48;66.04
15880;BME280;61999;51.514;14.614;2023-04-30T00:06:43;100292.41;;;5.54;66.01
15880;BME280;61999;51.514;14.614;2023-04-30T00:09:11;100299.66;;;5.49;65.81
15880;BME280;61999;51.514;14.614;2023-04-30T00:11:39;100303.53;;;5.42;66.00
15880;BME280;61999;51.514;14.614;2023-04-30T00:14:07;100305.84;;;5.48;65.95
15880;BME280;61999;51.514;14.614;2023-04-30T00:16:35;100300.66;;;5.47;65.80
15880;BME280;61999;51.514;14.614;2023-04-30T00:19:05;100305.06;;;5.46;65.69
15880;BME280;61999;51.514;14.614;2023-04-30T00:21:33;100310.47;;;5.43;65.90
15880;BME280;61999;51.514;14.614;2023-04-30T00:24:01;100295.44;;;5.31;65.55
15880;BME280;61999;51.514;14.614;2023-04-30T00:26:29;100303.84;;;5.36;65.74
15880;BME280;61999;51.514;14.614;2023-04-30T00:28:57;100299.47;;;5.21;66.09
15880;BME280;61999;51.514;14.614;2023-04-30T00:31:25;100302.75;;;5.24;65.62
15880;BME280;61999;51.514;14.614;2023-04-30T00:33:54;100308.66;;;5.28;65.83
15880;BME280;61999;51.514;14.614;2023-04-30T00:36:23;100313.47;;;5.36;65.37
15880;BME280;61999;51.514;14.614;2023-04-30T00:38:51;100313.31;;;5.39;65.14
15880;BME280;61999;51.514;14.614;2023-04-30T00:41:21;100312.13;;;5.44;64.86
15880;BME280;61999;51.514;14.614;2023-04-30T00:43:49;100314.41;;;5.50;64.75
15880;BME280;61999;51.514;14.614;2023-04-30T00:46:17;100307.56;;;5.48;64.69
15880;BME280;61999;51.514;14.614;2023-04-30T00:48:46;100313.06;;;5.43;64.81
15880;BME280;61999;51.514;14.614;2023-04-30T00:51:15;100316.88;;;5.53;64.83
15880;BME280;61999;51.514;14.614;2023-04-30T00:53:44;100320.75;;;5.46;64.57
15880;BME280;61999;51.514;14.614;2023-04-30T00:56:14;100311.06;;;5.48;64.29
15880;BME280;61999;51.514;14.614;2023-04-30T00:58:43;100316.88;;;5.53;63.82
15880;BME280;61999;51.514;14.614;2023-04-30T01:01:12;100327.50;;;5.50;63.77
15880;BME280;61999;51.514;14.614;2023-04-30T01:03:42;100326.16;;;5.43;63.69
15880;BME280;61999;51.514;14.614;2023-04-30T01:06:10;100327.38;;;5.36;63.29
15880;BME280;61999;51.514;14.614;2023-04-30T01:08:38;100323.44;;;5.29;63.38
15880;BME280;61999;51.514;14.614;2023-04-30T01:11:18;100333.50;;;5.19;62.82
15880;BME280;61999;51.514;14.614;2023-04-30T01:13:59;100339.34;;;4.91;63.51
15880;BME280;61999;51.514;14.614;2023-04-30T01:16:39;100343.25;;;4.82;63.64
15880;BME280;61999;51.514;14.614;2023-04-30T01:19:28;100343.47;;;4.78;63.50
15880;BME280;61999;51.514;14.614;2023-04-30T01:22:04;100358.78;;;4.68;63.54
15880;BME280;61999;51.514;14.614;2023-04-30T01:24:53;100359.09;;;4.43;63.78
15880;BME280;61999;51.514;14.614;2023-04-30T01:30:33;100368.59;;;4.27;63.98
15880;BME280;61999;51.514;14.614;2023-04-30T01:33:02;100366.66;;;3.94;65.23
15880;BME280;61999;51.514;14.614;2023-04-30T01:35:57;100379.63;;;4.14;64.30
15880;BME280;61999;51.514;14.614;2023-04-30T01:38:58;100384.69;;;4.17;63.86
15880;BME280;61999;51.514;14.614;2023-04-30T01:41:35;100380.53;;;4.13;64.01
15880;BME280;61999;51.514;14.614;2023-04-30T01:44:28;100380.75;;;4.09;63.68
15880;BME280;61999;51.514;14.614;2023-04-30T01:47:06;100386.97;;;4.06;63.25
15880;BME280;61999;51.514;14.614;2023-04-30T01:49:50;100388.09;;;3.82;63.88
15880;BME280;61999;51.514;14.614;2023-04-30T01:52:33;100390.63;;;3.83;62.86
15880;BME280;61999;51.514;14.614;2023-04-30T01:55:08;100394.88;;;3.86;62.59
15880;BME280;61999;51.514;14.614;2023-04-30T01:57:44;100394.78;;;3.68;62.67
15880;BME280;61999;51.514;14.614;2023-04-30T02:00:16;100402.84;;;3.83;62.37
15880;BME280;61999;51.514;14.614;2023-04-30T02:02:45;100394.91;;;3.84;62.19
15880;BME280;61999;51.514;14.614;2023-04-30T02:05:13;100402.38;;;3.54;62.05
15880;BME280;61999;51.514;14.614;2023-04-30T02:07:44;100407.50;;;3.37;62.76
15880;BME280;61999;51.514;14.614;2023-04-30T02:10:15;100408.63;;;3.50;62.36
15880;BME280;61999;51.514;14.614;2023-04-30T02:12:43;100412.66;;;3.57;61.99
15880;BME280;61999;51.514;14.614;2023-04-30T02:15:12;100418.34;;;3.46;61.88
15880;BME280;61999;51.514;14.614;2023-04-30T02:17:40;100423.09;;;3.16;62.30
15880;BME280;61999;51.514;14.614;2023-04-30T02:20:10;100425.06;;;3.32;62.06
15880;BME280;61999;51.514;14.614;2023-04-30T02:22:38;100432.25;;;3.26;62.26
15880;BME280;61999;51.514;14.614;2023-04-30T02:25:07;100419.59;;;3.38;61.65
15880;BME280;61999;51.514;14.614;2023-04-30T02:27:38;100424.69;;;3.41;61.51
15880;BME280;61999;51.514;14.614;2023-04-30T02:30:07;100429.72;;;3.03;61.16
15880;BME280;61999;51.514;14.614;2023-04-30T02:32:35;100433.53;;;3.16;61.67
15880;BME280;61999;51.514;14.614;2023-04-30T02:35:03;100422.97;;;3.19;61.24
15880;BME280;61999;51.514;14.614;2023-04-30T02:37:33;100423.22;;;3.13;61.11
15880;BME280;61999;51.514;14.614;2023-04-30T02:40:01;100432.03;;;3.11;60.72
15880;BME280;61999;51.514;14.614;2023-04-30T02:42:29;100437.69;;;3.00;60.75
15880;BME280;61999;51.514;14.614;2023-04-30T02:44:57;100432.44;;;2.79;60.44
15880;BME280;61999;51.514;14.614;2023-04-30T02:47:26;100441.28;;;2.75;60.29
15880;BME280;61999;51.514;14.614;2023-04-30T02:49:54;100443.56;;;2.83;60.06
15880;BME280;61999;51.514;14.614;2023-04-30T02:52:22;100449.50;;;2.87;59.94
15880;BME280;61999;51.514;14.614;2023-04-30T02:54:51;100448.91;;;2.58;58.85
15880;BME280;61999;51.514;14.614;2023-04-30T02:57:19;100455.09;;;2.77;59.48
15880;BME280;61999;51.514;14.614;2023-04-30T02:59:47;100458.66;;;2.75;58.97
15880;BME280;61999;51.514;14.614;2023-04-30T03:02:15;100463.41;;;2.65;58.98
15880;BME280;61999;51.514;14.614;2023-04-30T03:04:47;100464.41;;;2.61;58.72
15880;BME280;61999;51.514;14.614;2023-04-30T03:07:15;100465.75;;;2.71;58.93
15880;BME280;61999;51.514;14.614;2023-04-30T03:09:43;100476.16;;;2.71;58.78
15880;BME280;61999;51.514;14.614;2023-04-30T03:12:13;100480.28;;;2.77;58.73
15880;BME280;61999;51.514;14.614;2023-04-30T03:14:41;100472.63;;;2.72;58.60
15880;BME280;61999;51.514;14.614;2023-04-30T03:17:09;100475.06;;;2.77;58.86
15880;BME280;61999;51.514;14.614;2023-04-30T03:19:37;100469.38;;;2.67;58.34
15880;BME280;61999;51.514;14.614;2023-04-30T03:22:05;100476.28;;;2.68;58.49
15880;BME280;61999;51.514;14.614;2023-04-30T03:24:33;100475.50;;;2.66;58.52
15880;BME280;61999;51.514;14.614;2023-04-30T03:27:01;100476.63;;;2.59;58.21
15880;BME280;61999;51.514;14.614;2023-04-30T03:29:30;100493.41;;;2.52;58.11
15880;BME280;61999;51.514;14.614;2023-04-30T03:31:58;100496.13;;;2.49;58.31
15880;BME280;61999;51.514;14.614;2023-04-30T03:34:26;100492.84;;;2.44;58.32
15880;BME280;61999;51.514;14.614;2023-04-30T03:36:54;100496.09;;;2.27;58.14
15880;BME280;61999;51.514;14.614;2023-04-30T03:39:22;100507.41;;;2.26;58.65
15880;BME280;61999;51.514;14.614;2023-04-30T03:41:50;100500.44;;;2.26;58.59
15880;BME280;61999;51.514;14.614;2023-04-30T03:44:18;100507.69;;;2.18;58.56
15880;BME280;61999;51.514;14.614;2023-04-30T03:46:48;100513.94;;;2.12;58.68
15880;BME280;61999;51.514;14.614;2023-04-30T03:49:16;100519.38;;;2.06;58.68
15880;BME280;61999;51.514;14.614;2023-04-30T03:51:44;100517.13;;;1.97;59.00
15880;BME280;61999;51.514;14.614;2023-04-30T03:54:12;100505.59;;;1.79;59.26
15880;BME280;61999;51.514;14.614;2023-04-30T03:56:40;100514.47;;;1.73;59.70
15880;BME280;61999;51.514;14.614;2023-04-30T03:59:08;100528.63;;;1.90;59.01
15880;BME280;61999;51.514;14.614;2023-04-30T04:01:36;100528.53;;;1.93;59.25
15880;BME280;61999;51.514;14.614;2023-04-30T04:04:06;100532.75;;;1.95;59.23
15880;BME280;61999;51.514;14.614;2023-04-30T04:06:34;100532.03;;;1.92;59.01
15880;BME280;61999;51.514;14.614;2023-04-30T04:09:02;100535.53;;;1.91;58.95
15880;BME280;61999;51.514;14.614;2023-04-30T04:11:31;100539.97;;;1.87;59.38
15880;BME280;61999;51.514;14.614;2023-04-30T04:13:59;100542.84;;;1.80;59.64
15880;BME280;61999;51.514;14.614;2023-04-30T04:16:27;100546.16;;;1.83;59.51
15880;BME280;61999;51.514;14.614;2023-04-30T04:18:56;100552.41;;;1.79;59.69
15880;BME280;61999;51.514;14.614;2023-04-30T04:21:25;100557.78;;;1.73;59.53
15880;BME280;61999;51.514;14.614;2023-04-30T04:23:54;100556.72;;;1.54;60.18
15880;BME280;61999;51.514;14.614;2023-04-30T04:26:22;100567.53;;;1.66;59.78
15880;BME280;61999;51.514;14.614;2023-04-30T04:28:51;100571.56;;;1.75;59.94
15880;BME280;61999;51.514;14.614;2023-04-30T04:31:19;100569.69;;;1.80;59.78
15880;BME280;61999;51.514;14.614;2023-04-30T04:33:48;100579.97;;;1.83;60.18
15880;BME280;61999;51.514;14.614;2023-04-30T04:36:16;100576.34;;;1.62;60.73
15880;BME280;61999;51.514;14.614;2023-04-30T04:38:45;100586.78;;;1.61;61.31
15880;BME280;61999;51.514;14.614;2023-04-30T04:41:13;100592.16;;;1.56;61.82
15880;BME280;61999;51.514;14.614;2023-04-30T04:43:42;100591.28;;;1.56;61.74
15880;BME280;61999;51.514;14.614;2023-04-30T04:46:10;100590.31;;;1.33;61.83
15880;BME280;61999;51.514;14.614;2023-04-30T04:48:39;100591.34;;;0.71;64.49
15880;BME280;61999;51.514;14.614;2023-04-30T04:51:07;100601.81;;;0.68;65.10
15880;BME280;61999;51.514;14.614;2023-04-30T04:53:35;100600.34;;;0.59;64.87
15880;BME280;61999;51.514;14.614;2023-04-30T04:56:05;100599.25;;;0.67;66.00
15880;BME280;61999;51.514;14.614;2023-04-30T04:58:34;100604.69;;;0.26;66.54
15880;BME280;61999;51.514;14.614;2023-04-30T05:01:02;100604.81;;;0.54;65.97
15880;BME280;61999;51.514;14.614;2023-04-30T05:03:31;100607.41;;;1.12;64.42
15880;BME280;61999;51.514;14.614;2023-04-30T05:06:00;100608.78;;;1.50;63.20
15880;BME280;61999;51.514;14.614;2023-04-30T05:08:28;100606.69;;;1.62;62.44
15880;BME280;61999;51.514;14.614;2023-04-30T05:10:56;100615.56;;;1.81;62.30
15880;BME280;61999;51.514;14.614;2023-04-30T05:13:25;100615.75;;;2.02;61.62
15880;BME280;61999;51.514;14.614;2023-04-30T05:15:53;100621.66;;;2.32;60.99
15880;BME280;61999;51.514;14.614;2023-04-30T05:18:21;100622.97;;;2.18;60.57
15880;BME280;61999;51.514;14.614;2023-04-30T05:20:49;100621.66;;;2.32;60.55
15880;BME280;61999;51.514;14.614;2023-04-30T05:23:17;100633.03;;;2.53;60.04
15880;BME280;61999;51.514;14.614;2023-04-30T05:25:45;100639.38;;;1.69;60.17
15880;BME280;61999;51.514;14.614;2023-04-30T05:28:17;100631.00;;;1.33;59.75
15880;BME280;61999;51.514;14.614;2023-04-30T05:30:47;100634.03;;;1.19;63.88
15880;BME280;61999;51.514;14.614;2023-04-30T05:33:15;100636.72;;;1.70;62.40
15880;BME280;61999;51.514;14.614;2023-04-30T05:35:43;100642.47;;;1.80;60.73
15880;BME280;61999;51.514;14.614;2023-04-30T05:38:11;100646.91;;;2.03;60.32
15880;BME280;61999;51.514;14.614;2023-04-30T05:40:39;100642.72;;;2.24;59.85
15880;BME280;61999;51.514;14.614;2023-04-30T05:43:07;100645.06;;;2.07;58.94
15880;BME280;61999;51.514;14.614;2023-04-30T05:45:35;100652.75;;;2.10;59.29
15880;BME280;61999;51.514;14.614;2023-04-30T05:48:05;100647.41;;;2.63;58.12
15880;BME280;61999;51.514;14.614;2023-04-30T05:50:33;100653.53;;;2.62;56.84
15880;BME280;61999;51.514;14.614;2023-04-30T05:53:00;100659.41;;;2.67;57.55
15880;BME280;61999;51.514;14.614;2023-04-30T05:55:28;100652.38;;;2.46;57.01
15880;BME280;61999;51.514;14.614;2023-04-30T05:57:57;100658.94;;;2.56;57.38
15880;BME280;61999;51.514;14.614;2023-04-30T06:00:24;100662.75;;;2.71;57.43
15880;BME280;61999;51.514;14.614;2023-04-30T06:02:52;100655.66;;;2.98;57.22
15880;BME280;61999;51.514;14.614;2023-04-30T06:05:22;100640.91;;;2.51;56.57
15880;BME280;61999;51.514;14.614;2023-04-30T06:07:50;100647.69;;;2.30;58.48
15880;BME280;61999;51.514;14.614;2023-04-30T06:10:18;100649.16;;;2.62;57.97
15880;BME280;61999;51.514;14.614;2023-04-30T06:12:46;100649.25;;;1.58;59.33
15880;BME280;61999;51.514;14.614;2023-04-30T06:15:14;100652.34;;;1.69;59.74
15880;BME280;61999;51.514;14.614;2023-04-30T06:17:42;100656.41;;;2.04;58.30
15880;BME280;61999;51.514;14.614;2023-04-30T06:20:11;100659.56;;;2.39;59.21
15880;BME280;61999;51.514;14.614;2023-04-30T06:22:41;100662.91;;;2.43;56.46
15880;BME280;61999;51.514;14.614;2023-04-30T06:25:09;100666.94;;;2.75;56.77
15880;BME280;61999;51.514;14.614;2023-04-30T06:27:37;100666.53;;;2.85;57.64
15880;BME280;61999;51.514;14.614;2023-04-30T06:30:07;100663.03;;;2.87;55.36
15880;BME280;61999;51.514;14.614;2023-04-30T06:32:35;100668.22;;;2.87;54.80
15880;BME280;61999;51.514;14.614;2023-04-30T06:35:04;100671.72;;;3.33;55.31
15880;BME280;61999;51.514;14.614;2023-04-30T06:37:32;100665.53;;;3.35;54.69
15880;BME280;61999;51.514;14.614;2023-04-30T06:40:06;100673.19;;;2.93;53.51
15880;BME280;61999;51.514;14.614;2023-04-30T06:42:34;100662.09;;;2.15;56.45
15880;BME280;61999;51.514;14.614;2023-04-30T06:45:03;100670.97;;;1.57;57.60
15880;BME280;61999;51.514;14.614;2023-04-30T06:47:32;100673.97;;;1.15;58.00
15880;BME280;61999;51.514;14.614;2023-04-30T06:50:02;100673.00;;;0.58;61.86
15880;BME280;61999;51.514;14.614;2023-04-30T06:52:31;100673.91;;;0.88;61.03
15880;BME280;61999;51.514;14.614;2023-04-30T06:54:59;100678.38;;;1.95;59.39
15880;BME280;61999;51.514;14.614;2023-04-30T06:57:28;100672.56;;;2.39;56.58
15880;BME280;61999;51.514;14.614;2023-04-30T06:59:57;100672.97;;;0.91;56.59
15880;BME280;61999;51.514;14.614;2023-04-30T07:02:26;100674.22;;;1.90;58.18
15880;BME280;61999;51.514;14.614;2023-04-30T07:04:54;100677.41;;;1.15;56.45
15880;BME280;61999;51.514;14.614;2023-04-30T07:07:22;100675.47;;;1.50;58.46
15880;BME280;61999;51.514;14.614;2023-04-30T07:09:50;100671.03;;;2.33;56.65
15880;BME280;61999;51.514;14.614;2023-04-30T07:12:19;100671.75;;;2.85;55.96
15880;BME280;61999;51.514;14.614;2023-04-30T07:14:49;100674.63;;;3.01;53.61
15880;BME280;61999;51.514;14.614;2023-04-30T07:17:17;100683.97;;;3.31;53.47
15880;BME280;61999;51.514;14.614;2023-04-30T07:19:45;100680.16;;;3.82;53.16
15880;BME280;61999;51.514;14.614;2023-04-30T07:22:13;100684.25;;;1.47;54.61
15880;BME280;61999;51.514;14.614;2023-04-30T07:24:41;100684.03;;;1.82;55.68
15880;BME280;61999;51.514;14.614;2023-04-30T07:27:09;100685.28;;;1.97;57.32
15880;BME280;61999;51.514;14.614;2023-04-30T07:29:37;100682.38;;;3.26;54.72
15880;BME280;61999;51.514;14.614;2023-04-30T07:32:06;100682.13;;;3.33;53.05
15880;BME280;61999;51.514;14.614;2023-04-30T07:34:34;100680.00;;;2.73;50.69
15880;BME280;61999;51.514;14.614;2023-04-30T07:37:02;100680.25;;;2.91;51.22
15880;BME280;61999;51.514;14.614;2023-04-30T07:39:30;100676.66;;;3.83;51.55
15880;BME280;61999;51.514;14.614;2023-04-30T07:41:58;100682.97;;;2.39;49.95
15880;BME280;61999;51.514;14.614;2023-04-30T07:44:29;100680.22;;;3.38;51.11
15880;BME280;61999;51.514;14.614;2023-04-30T07:46:57;100680.56;;;3.72;49.69
15880;BME280;61999;51.514;14.614;2023-04-30T07:49:27;100687.00;;;4.06;50.85
15880;BME280;61999;51.514;14.614;2023-04-30T07:51:55;100694.28;;;3.98;50.29
15880;BME280;61999;51.514;14.614;2023-04-30T07:54:23;100686.81;;;4.31;51.71
15880;BME280;61999;51.514;14.614;2023-04-30T07:56:51;100693.91;;;4.48;50.78
15880;BME280;61999;51.514;14.614;2023-04-30T07:59:19;100694.38;;;2.83;49.37
15880;BME280;61999;51.514;14.614;2023-04-30T08:01:50;100696.41;;;2.75;52.52
15880;BME280;61999;51.514;14.614;2023-04-30T08:04:18;100700.28;;;4.00;51.02
15880;BME280;61999;51.514;14.614;2023-04-30T08:06:47;100691.19;;;5.09;50.74
15880;BME280;61999;51.514;14.614;2023-04-30T08:09:15;100688.50;;;4.92;49.82
15880;BME280;61999;51.514;14.614;2023-04-30T08:11:43;100691.81;;;5.15;50.01
15880;BME280;61999;51.514;14.614;2023-04-30T08:14:11;100693.91;;;5.44;49.17
15880;BME280;61999;51.514;14.614;2023-04-30T08:16:39;100687.34;;;4.60;46.74
15880;BME280;61999;51.514;14.614;2023-04-30T08:19:07;100703.97;;;3.52;47.85
15880;BME280;61999;51.514;14.614;2023-04-30T08:21:35;100698.16;;;2.98;48.46
15880;BME280;61999;51.514;14.614;2023-04-30T08:24:04;100702.13;;;3.98;46.68
15880;BME280;61999;51.514;14.614;2023-04-30T08:26:32;100699.13;;;4.07;46.00
15880;BME280;61999;51.514;14.614;2023-04-30T08:29:00;100708.19;;;3.33;46.57
15880;BME280;61999;51.514;14.614;2023-04-30T08:31:28;100715.16;;;4.39;47.62
15880;BME280;61999;51.514;14.614;2023-04-30T08:33:56;100705.25;;;4.68;45.45
15880;BME280;61999;51.514;14.614;2023-04-30T08:36:24;100696.63;;;5.24;44.04
15880;BME280;61999;51.514;14.614;2023-04-30T08:38:53;100697.56;;;5.78;44.63
15880;BME280;61999;51.514;14.614;2023-04-30T08:41:25;100700.53;;;5.70;45.15
15880;BME280;61999;51.514;14.614;2023-04-30T08:43:59;100702.28;;;5.15;44.65
15880;BME280;61999;51.514;14.614;2023-04-30T08:46:30;100695.56;;;5.83;43.79
15880;BME280;61999;51.514;14.614;2023-04-30T08:48:59;100694.63;;;6.36;42.91
15880;BME280;61999;51.514;14.614;2023-04-30T08:51:30;100697.56;;;5.78;43.67
15880;BME280;61999;51.514;14.614;2023-04-30T08:53:59;100692.16;;;6.16;44.02
15880;BME280;61999;51.514;14.614;2023-04-30T08:56:29;100691.34;;;6.66;41.38
15880;BME280;61999;51.514;14.614;2023-04-30T08:58:57;100700.41;;;7.09;41.85
15880;BME280;61999;51.514;14.614;2023-04-30T09:01:27;100693.63;;;7.21;39.75
15880;BME280;61999;51.514;14.614;2023-04-30T09:03:56;100703.88;;;7.42;40.71
15880;BME280;61999;51.514;14.614;2023-04-30T09:06:25;100697.34;;;7.49;40.35
15880;BME280;61999;51.514;14.614;2023-04-30T09:08:53;100691.13;;;7.20;39.17
15880;BME280;61999;51.514;14.614;2023-04-30T09:11:23;100684.88;;;7.84;38.37
15880;BME280;61999;51.514;14.614;2023-04-30T09:13:56;100699.59;;;7.71;39.03
15880;BME280;61999;51.514;14.614;2023-04-30T09:16:25;100688.22;;;6.75;40.02
15880;BME280;61999;51.514;14.614;2023-04-30T09:18:53;100704.69;;;7.90;39.52
15880;BME280;61999;51.514;14.614;2023-04-30T09:21:33;100687.63;;;8.70;37.15
15880;BME280;61999;51.514;14.614;2023-04-30T09:24:03;100696.47;;;7.64;36.73
15880;BME280;61999;51.514;14.614;2023-04-30T09:26:34;100697.91;;;7.54;37.11
15880;BME280;61999;51.514;14.614;2023-04-30T09:29:04;100702.56;;;8.11;36.22
15880;BME280;61999;51.514;14.614;2023-04-30T09:31:34;100691.47;;;8.50;36.17
15880;BME280;61999;51.514;14.614;2023-04-30T09:34:04;100700.13;;;9.09;35.68
15880;BME280;61999;51.514;14.614;2023-04-30T09:36:32;100696.25;;;7.99;36.90
15880;BME280;61999;51.514;14.614;2023-04-30T09:39:07;100687.00;;;8.52;35.18
15880;BME280;61999;51.514;14.614;2023-04-30T09:41:38;100683.88;;;9.98;35.12
15880;BME280;61999;51.514;14.614;2023-04-30T09:44:25;100689.06;;;9.73;32.09
15880;BME280;61999;51.514;14.614;2023-04-30T09:46:55;100682.88;;;9.59;34.32
15880;BME280;61999;51.514;14.614;2023-04-30T09:49:23;100676.91;;;9.97;34.64
15880;BME280;61999;51.514;14.614;2023-04-30T09:51:55;100674.59;;;10.82;34.31
15880;BME280;61999;51.514;14.614;2023-04-30T09:54:27;100675.69;;;9.49;36.39
15880;BME280;61999;51.514;14.614;2023-04-30T09:56:58;100679.09;;;9.09;33.44
15880;BME280;61999;51.514;14.614;2023-04-30T09:59:30;100686.22;;;7.75;37.08
15880;BME280;61999;51.514;14.614;2023-04-30T10:02:01;100677.25;;;8.83;35.15
15880;BME280;61999;51.514;14.614;2023-04-30T10:04:34;100685.53;;;9.32;33.96
15880;BME280;61999;51.514;14.614;2023-04-30T10:07:07;100677.97;;;8.42;36.17
15880;BME280;61999;51.514;14.614;2023-04-30T10:09:42;100679.75;;;10.20;35.50
15880;BME280;61999;51.514;14.614;2023-04-30T10:12:15;100663.63;;;10.37;33.53
15880;BME280;61999;51.514;14.614;2023-04-30T10:14:54;100678.09;;;10.44;32.88
15880;BME280;61999;51.514;14.614;2023-04-30T10:17:26;100668.19;;;10.48;31.22
15880;BME280;61999;51.514;14.614;2023-04-30T10:20:01;100665.81;;;10.58;30.72
15880;BME280;61999;51.514;14.614;2023-04-30T10:22:33;100665.47;;;11.12;29.72
15880;BME280;61999;51.514;14.614;2023-04-30T10:25:02;100677.84;;;11.84;29.86
15880;BME280;61999;51.514;14.614;2023-04-30T10:27:31;100666.00;;;12.47;28.32
15880;BME280;61999;51.514;14.614;2023-04-30T10:30:01;100669.72;;;12.33;28.42
15880;BME280;61999;51.514;14.614;2023-04-30T10:32:37;100650.13;;;13.68;26.98
15880;BME280;61999;51.514;14.614;2023-04-30T10:35:18;100656.06;;;11.21;28.65
15880;BME280;61999;51.514;14.614;2023-04-30T10:37:56;100647.47;;;12.81;27.60
15880;BME280;61999;51.514;14.614;2023-04-30T10:40:26;100657.38;;;11.74;26.78
15880;BME280;61999;51.514;14.614;2023-04-30T10:42:54;100650.06;;;12.13;29.02
15880;BME280;61999;51.514;14.614;2023-04-30T10:45:35;100648.13;;;13.28;26.36
15880;BME280;61999;51.514;14.614;2023-04-30T10:48:05;100643.69;;;14.23;27.89
15880;BME280;61999;51.514;14.614;2023-04-30T10:50:39;100647.00;;;14.16;25.27
15880;BME280;61999;51.514;14.614;2023-04-30T10:53:12;100636.25;;;14.17;24.13
15880;BME280;61999;51.514;14.614;2023-04-30T10:55:46;100643.16;;;15.01;23.20
15880;BME280;61999;51.514;14.614;2023-04-30T10:58:26;100642.97;;;15.43;23.71
15880;BME280;61999;51.514;14.614;2023-04-30T11:01:03;100639.56;;;14.40;25.94
15880;BME280;61999;51.514;14.614;2023-04-30T11:03:34;100639.81;;;15.08;25.55
15880;BME280;61999;51.514;14.614;2023-04-30T11:06:11;100640.94;;;14.35;23.84
15880;BME280;61999;51.514;14.614;2023-04-30T11:08:43;100640.47;;;13.02;26.35
15880;BME280;61999;51.514;14.614;2023-04-30T11:11:17;100648.84;;;15.36;25.32
15880;BME280;61999;51.514;14.614;2023-04-30T11:13:59;100643.50;;;16.04;23.07
15880;BME280;61999;51.514;14.614;2023-04-30T11:16:30;100634.53;;;17.97;23.60
15880;BME280;61999;51.514;14.614;2023-04-30T11:19:05;100638.19;;;15.75;21.72
15880;BME280;61999;51.514;14.614;2023-04-30T11:21:39;100638.38;;;14.85;24.75
15880;BME280;61999;51.514;14.614;2023-04-30T11:24:07;100646.09;;;14.98;22.00
15880;BME280;61999;51.514;14.614;2023-04-30T11:27:03;100642.41;;;15.68;21.75
15880;BME280;61999;51.514;14.614;2023-04-30T11:29:31;100636.25;;;15.19;22.69
15880;BME280;61999;51.514;14.614;2023-04-30T11:32:03;100627.34;;;17.54;22.26
15880;BME280;61999;51.514;14.614;2023-04-30T11:34:33;100632.91;;;18.04;22.62
15880;BME280;61999;51.514;14.614;2023-04-30T11:37:02;100626.72;;;19.15;21.52
15880;BME280;61999;51.514;14.614;2023-04-30T11:39:34;100619.75;;;21.45;21.09
15880;BME280;61999;51.514;14.614;2023-04-30T11:42:03;100617.78;;;21.77;18.95
15880;BME280;61999;51.514;14.614;2023-04-30T11:44:31;100628.16;;;21.80;18.78
15880;BME280;61999;51.514;14.614;2023-04-30T11:46:59;100615.03;;;21.85;17.95
15880;BME280;61999;51.514;14.614;2023-04-30T11:49:29;100624.59;;;19.92;17.58
15880;BME280;61999;51.514;14.614;2023-04-30T11:51:58;100621.06;;;18.41;17.93
15880;BME280;61999;51.514;14.614;2023-04-30T11:54:30;100631.75;;;15.29;20.60
15880;BME280;61999;51.514;14.614;2023-04-30T11:56:58;100624.06;;;15.16;20.92
15880;BME280;61999;51.514;14.614;2023-04-30T11:59:31;100624.84;;;16.61;19.85
15880;BME280;61999;51.514;14.614;2023-04-30T12:01:59;100620.84;;;17.56;20.02
15880;BME280;61999;51.514;14.614;2023-04-30T12:04:28;100628.44;;;19.57;17.89
15880;BME280;61999;51.514;14.614;2023-04-30T12:06:56;100625.66;;;19.00;18.97
15880;BME280;61999;51.514;14.614;2023-04-30T12:09:24;100619.91;;;19.78;17.60
15880;BME280;61999;51.514;14.614;2023-04-30T12:11:52;100627.28;;;21.18;17.87
15880;BME280;61999;51.514;14.614;2023-04-30T12:14:24;100628.50;;;23.53;17.22
15880;BME280;61999;51.514;14.614;2023-04-30T12:16:52;100619.69;;;22.50;16.83
15880;BME280;61999;51.514;14.614;2023-04-30T12:19:21;100625.50;;;23.20;15.73
15880;BME280;61999;51.514;14.614;2023-04-30T12:21:53;100621.66;;;24.90;15.21
15880;BME280;61999;51.514;14.614;2023-04-30T12:24:21;100610.97;;;20.18;15.51
15880;BME280;61999;51.514;14.614;2023-04-30T12:26:53;100607.97;;;21.00;17.50
15880;BME280;61999;51.514;14.614;2023-04-30T12:29:22;100614.38;;;21.22;17.04
15880;BME280;61999;51.514;14.614;2023-04-30T12:31:52;100613.25;;;22.81;14.97
15880;BME280;61999;51.514;14.614;2023-04-30T12:34:25;100609.22;;;23.07;14.82
15880;BME280;61999;51.514;14.614;2023-04-30T12:36:57;100602.72;;;20.75;15.88
15880;BME280;61999;51.514;14.614;2023-04-30T12:39:32;100608.44;;;23.13;14.31
15880;BME280;61999;51.514;14.614;2023-04-30T12:42:00;100601.41;;;21.86;14.81
15880;BME280;61999;51.514;14.614;2023-04-30T12:44:29;100602.34;;;19.18;16.65
15880;BME280;61999;51.514;14.614;2023-04-30T12:46:57;100590.44;;;22.26;15.04
15880;BME280;61999;51.514;14.614;2023-04-30T12:49:28;100596.72;;;22.63;15.32
15880;BME280;61999;51.514;14.614;2023-04-30T12:52:00;100591.09;;;22.79;15.56
15880;BME280;61999;51.514;14.614;2023-04-30T12:54:31;100579.38;;;25.50;14.78
15880;BME280;61999;51.514;14.614;2023-04-30T12:57:01;100590.41;;;20.58;14.60
15880;BME280;61999;51.514;14.614;2023-04-30T12:59:32;100571.09;;;21.02;16.51
15880;BME280;61999;51.514;14.614;2023-04-30T13:02:08;100558.56;;;21.17;16.75
15880;BME280;61999;51.514;14.614;2023-04-30T13:04:36;100578.13;;;21.03;15.50
15880;BME280;61999;51.514;14.614;2023-04-30T13:07:05;100576.91;;;23.50;15.12